Time;durP1;ratioP1;P1;durP2;ratioP2;P2;SDS_P1;SDS_P2;PMS_P1;PMS_P2;Temp;Humidity;BMP_temperature;BMP_pressure;BME280_temperature;BME280_humidity;BME280_pressure;Samples;Min_cycle;Max_cycle;Signal;HPM_P1;HPM_P2
2022/12/23 00:01:14;;;;;;;27.90;18.90;;;2.80;99.90;;;;;;5093666;28;20177;-88
2022/12/23 00:03:40;;;;;;;28.83;18.17;;;2.70;99.90;;;;;;5092132;28;20231;-84
2022/12/23 00:06:13;;;;;;;27.80;17.77;;;2.60;99.90;;;;;;5107537;28;20174;-89
2022/12/23 00:08:40;;;;;;;26.97;16.83;;;2.60;99.90;;;;;;5093489;28;20232;-89
2022/12/23 00:11:11;;;;;;;29.13;17.00;;;2.70;99.90;;;;;;5094572;28;20198;-90
2022/12/23 00:16:22;;;;;;;33.27;16.73;;;2.50;99.90;;;;;;5112758;28;20201;-87
2022/12/23 00:18:47;;;;;;;26.60;16.50;;;2.50;99.90;;;;;;5108076;28;20630;-85
2022/12/23 00:21:16;;;;;;;30.07;17.23;;;2.50;99.90;;;;;;5110472;28;20629;-90
2022/12/23 00:23:44;;;;;;;24.53;15.93;;;2.50;99.90;;;;;;5096343;28;20217;-88
2022/12/23 00:26:21;;;;;;;27.30;16.40;;;2.50;99.90;;;;;;5094466;28;20510;-89
2022/12/23 00:28:47;;;;;;;27.87;15.77;;;2.50;99.90;;;;;;5075513;28;20173;-88
2022/12/23 00:31:13;;;;;;;24.77;15.20;;;2.50;99.90;;;;;;5073878;28;20200;-85
2022/12/23 00:33:42;;;;;;;26.53;15.53;;;2.40;99.90;;;;;;5075622;28;20191;-88
2022/12/23 00:36:29;;;;;;;22.20;14.73;;;2.40;99.90;;;;;;5077678;28;20273;-87
2022/12/23 00:44:24;;;;;;;29.30;15.83;;;2.40;99.90;;;;;;5073949;28;20177;-88
2022/12/23 00:46:50;;;;;;;25.07;15.73;;;2.40;99.90;;;;;;5074288;28;20172;-89
2022/12/23 00:52:05;;;;;;;26.43;15.63;;;2.50;99.90;;;;;;5077630;28;20171;-88
2022/12/23 00:54:31;;;;;;;25.70;16.00;;;2.60;99.90;;;;;;5076702;28;20652;-90
2022/12/23 00:56:58;;;;;;;28.57;17.57;;;2.60;99.90;;;;;;5076873;28;20301;-89
2022/12/23 00:59:24;;;;;;;25.93;15.53;;;2.60;99.90;;;;;;5083210;28;20168;-85
2022/12/23 01:07:19;;;;;;;26.87;15.97;;;2.70;99.90;;;;;;5076905;28;20309;-88
2022/12/23 01:09:45;;;;;;;26.37;15.63;;;2.70;99.90;;;;;;5076752;28;20173;-88
2022/12/23 01:12:11;;;;;;;25.07;16.50;;;2.70;99.90;;;;;;5080464;28;20597;-90
2022/12/23 01:14:37;;;;;;;25.63;16.13;;;2.60;99.90;;;;;;5097911;28;20204;-85
2022/12/23 01:17:04;;;;;;;24.77;15.10;;;2.60;99.90;;;;;;5098820;28;20215;-88
2022/12/23 01:19:30;;;;;;;21.70;15.23;;;2.70;99.90;;;;;;5108569;28;20182;-90
2022/12/23 01:21:56;;;;;;;22.67;14.40;;;2.70;99.90;;;;;;5117754;28;20657;-87
2022/12/23 01:24:22;;;;;;;24.20;15.50;;;2.70;99.90;;;;;;5091765;28;20206;-89
2022/12/23 01:26:48;;;;;;;25.53;15.60;;;2.70;99.90;;;;;;5080381;28;20176;-90
2022/12/23 01:29:13;;;;;;;21.77;14.50;;;2.70;99.90;;;;;;5098327;28;20180;-88
2022/12/23 01:31:39;;;;;;;22.20;14.23;;;2.80;99.90;;;;;;5100744;28;20190;-88
2022/12/23 01:34:06;;;;;;;20.70;13.90;;;2.70;99.90;;;;;;5098299;28;20227;-90
2022/12/23 01:36:32;;;;;;;19.53;13.77;;;2.70;99.90;;;;;;5109349;28;20205;-90
2022/12/23 01:38:58;;;;;;;18.50;13.50;;;2.80;99.90;;;;;;5112495;28;20174;-86
2022/12/23 01:44:59;;;;;;;20.40;14.47;;;2.80;99.90;;;;;;5096725;28;20212;-88
2022/12/23 01:47:33;;;;;;;18.67;12.77;;;2.80;99.90;;;;;;5085168;28;20179;-88
2022/12/23 01:50:07;;;;;;;17.93;12.90;;;2.80;99.90;;;;;;5093574;28;20165;-87
2022/12/23 01:52:39;;;;;;;15.70;11.30;;;2.80;99.90;;;;;;5079530;28;20560;-89
2022/12/23 01:55:06;;;;;;;16.57;12.37;;;2.80;99.90;;;;;;5074917;28;20211;-88
2022/12/23 01:57:35;;;;;;;18.60;12.73;;;2.80;99.90;;;;;;5080024;28;20622;-89
2022/12/23 02:05:31;;;;;;;15.83;10.60;;;2.90;99.90;;;;;;5092499;28;20178;-87
2022/12/23 02:11:00;;;;;;;14.90;11.90;;;2.70;99.90;;;;;;5096070;28;20171;-88
2022/12/23 02:17:06;;;;;;;18.47;12.37;;;2.80;99.90;;;;;;5093870;28;20189;-90
2022/12/23 02:19:55;;;;;;;16.43;11.80;;;2.90;99.90;;;;;;5109327;28;20188;-89
2022/12/23 02:22:29;;;;;;;19.33;12.77;;;2.90;99.90;;;;;;5096536;28;20255;-85
2022/12/23 02:25:18;;;;;;;18.97;12.17;;;2.90;99.90;;;;;;5099526;28;20189;-88
2022/12/23 02:28:11;;;;;;;18.37;12.33;;;2.90;99.90;;;;;;5098502;28;20198;-89
2022/12/23 02:30:51;;;;;;;19.20;13.57;;;2.80;99.90;;;;;;5095515;28;20178;-88
2022/12/23 02:33:43;;;;;;;22.63;13.60;;;2.90;99.90;;;;;;5086030;28;20174;-88
2022/12/23 02:36:17;;;;;;;23.83;14.33;;;2.90;99.90;;;;;;5075873;28;20238;-89
2022/12/23 02:39:06;;;;;;;20.37;14.07;;;2.80;99.90;;;;;;5099137;28;20177;-86
2022/12/23 02:41:41;;;;;;;23.50;14.23;;;2.80;99.90;;;;;;5087525;28;20185;-90
2022/12/23 02:44:36;;;;;;;21.90;14.40;;;2.80;99.90;;;;;;5075799;28;20186;-89
2022/12/23 02:47:26;;;;;;;21.33;13.87;;;2.80;99.90;;;;;;5074451;28;20171;-88
2022/12/23 02:49:55;;;;;;;20.63;14.27;;;2.90;99.90;;;;;;5054758;28;20222;-88
2022/12/23 02:52:31;;;;;;;22.60;13.53;;;2.90;99.90;;;;;;5071154;28;20176;-88
2022/12/23 02:55:02;;;;;;;22.90;15.00;;;2.90;99.90;;;;;;5056430;28;20316;-89
2022/12/23 02:57:38;;;;;;;19.00;11.87;;;2.90;99.90;;;;;;5055565;28;20178;-88
2022/12/23 03:00:05;;;;;;;15.73;11.17;;;2.90;99.90;;;;;;5054381;28;20225;-89
2022/12/23 03:02:35;;;;;;;16.20;11.87;;;2.90;99.90;;;;;;5055175;28;20164;-88
2022/12/23 03:05:00;;;;;;;18.20;11.30;;;2.90;99.90;;;;;;5094737;28;20632;-87
2022/12/23 03:07:40;;;;;;;14.27;10.93;;;2.80;99.90;;;;;;5094156;28;20358;-88
2022/12/23 03:10:06;;;;;;;14.73;10.57;;;2.90;99.90;;;;;;5099843;28;20149;-87
2022/12/23 03:12:52;;;;;;;14.23;10.13;;;2.90;99.90;;;;;;5098266;28;20177;-88
2022/12/23 03:15:43;;;;;;;12.37;10.07;;;3.00;99.90;;;;;;5081765;28;20212;-88
2022/12/23 03:18:27;;;;;;;17.27;10.53;;;3.00;99.90;;;;;;5098738;28;20265;-88
2022/12/23 03:21:02;;;;;;;14.47;10.73;;;3.00;99.90;;;;;;5101241;28;20180;-87
2022/12/23 03:23:31;;;;;;;12.60;9.10;;;3.10;99.90;;;;;;5099753;28;20176;-89
2022/12/23 03:26:03;;;;;;;16.73;10.57;;;3.10;99.90;;;;;;5081823;28;20179;-86
2022/12/23 03:28:38;;;;;;;12.10;9.33;;;3.20;99.90;;;;;;5098036;28;20630;-87
2022/12/23 03:31:09;;;;;;;10.43;8.37;;;3.30;99.90;;;;;;5093598;28;20174;-87
2022/12/23 03:33:41;;;;;;;9.77;8.23;;;3.20;99.90;;;;;;5093620;28;20171;-89
2022/12/23 03:36:17;;;;;;;11.77;8.60;;;3.20;99.90;;;;;;5092082;28;20205;-88
2022/12/23 03:38:44;;;;;;;13.33;9.50;;;3.30;99.90;;;;;;5074911;28;20159;-89
2022/12/23 03:41:17;;;;;;;9.70;8.17;;;3.30;99.90;;;;;;5077429;28;20206;-87
2022/12/23 03:43:52;;;;;;;11.50;9.23;;;3.30;99.90;;;;;;5092743;28;20166;-82
2022/12/23 03:46:37;;;;;;;12.97;9.47;;;3.20;99.90;;;;;;5079891;28;20260;-85
2022/12/23 03:49:13;;;;;;;12.63;9.37;;;3.20;99.90;;;;;;5080824;28;20193;-89
2022/12/23 03:51:56;;;;;;;11.63;8.97;;;3.20;99.90;;;;;;5100948;28;20162;-87
2022/12/23 03:54:33;;;;;;;11.53;9.23;;;3.30;99.90;;;;;;5101719;28;20617;-90
2022/12/23 03:57:03;;;;;;;12.97;8.83;;;3.20;99.90;;;;;;5096398;28;20255;-90
2022/12/23 03:59:37;;;;;;;13.83;9.87;;;3.20;99.90;;;;;;5095168;28;20257;-89
2022/12/23 04:02:14;;;;;;;12.50;9.77;;;3.30;99.90;;;;;;5095604;28;20193;-90
2022/12/23 04:04:52;;;;;;;11.90;9.17;;;3.20;99.90;;;;;;5096586;28;20561;-89
2022/12/23 04:07:23;;;;;;;14.23;9.80;;;3.20;99.90;;;;;;5095470;28;20217;-88
2022/12/23 04:09:52;;;;;;;13.23;9.27;;;3.30;99.90;;;;;;5099131;28;20172;-86
2022/12/23 04:12:19;;;;;;;14.20;10.57;;;3.30;99.90;;;;;;5098847;28;20174;-88
2022/12/23 04:14:47;;;;;;;15.27;11.30;;;3.30;99.90;;;;;;5097262;28;20209;-90
2022/12/23 04:17:14;;;;;;;14.07;11.27;;;3.30;99.90;;;;;;5104922;28;20178;-86
2022/12/23 04:19:41;;;;;;;14.90;11.47;;;3.30;99.90;;;;;;5106863;28;20174;-83
2022/12/23 04:22:06;;;;;;;15.00;10.87;;;3.20;99.90;;;;;;5098118;28;20174;-88
2022/12/23 04:24:32;;;;;;;14.57;10.67;;;3.00;99.90;;;;;;5100165;28;20173;-89
2022/12/23 04:26:58;;;;;;;12.57;10.37;;;3.00;99.90;;;;;;5100065;28;20212;-88
2022/12/23 04:29:24;;;;;;;14.97;10.27;;;3.00;99.90;;;;;;5100349;28;20160;-90
2022/12/23 04:31:50;;;;;;;13.00;9.80;;;3.10;99.90;;;;;;5099193;28;20183;-87
2022/12/23 04:34:15;;;;;;;12.27;8.97;;;3.10;99.90;;;;;;5099324;28;20168;-87
2022/12/23 04:36:41;;;;;;;11.00;8.47;;;3.20;99.90;;;;;;5099854;28;20259;-90
2022/12/23 04:39:08;;;;;;;13.27;8.77;;;3.20;99.90;;;;;;5100392;28;20164;-88
2022/12/23 04:41:34;;;;;;;12.87;10.03;;;3.30;99.90;;;;;;5098964;28;20170;-90
2022/12/23 04:44:00;;;;;;;15.10;11.23;;;3.30;99.90;;;;;;5100270;28;20509;-89
2022/12/23 04:46:25;;;;;;;19.43;12.40;;;3.30;99.90;;;;;;5102209;28;20185;-86
2022/12/23 04:48:51;;;;;;;19.50;13.50;;;3.30;99.90;;;;;;5089852;28;20165;-89
2022/12/23 04:51:17;;;;;;;20.77;14.00;;;3.40;99.90;;;;;;5079207;28;20184;-88
2022/12/23 04:53:43;;;;;;;17.53;14.43;;;3.40;99.90;;;;;;5084746;28;20195;-87
2022/12/23 04:56:08;;;;;;;19.73;14.17;;;3.30;99.90;;;;;;5089618;28;20216;-89
2022/12/23 04:58:34;;;;;;;20.17;13.33;;;3.30;99.90;;;;;;5093139;28;20178;-89
2022/12/23 05:01:05;;;;;;;18.70;13.33;;;3.30;99.90;;;;;;5087943;28;20182;-89
2022/12/23 05:03:31;;;;;;;20.93;12.83;;;3.30;99.90;;;;;;5103664;28;20227;-87
2022/12/23 05:05:59;;;;;;;20.90;13.30;;;3.20;99.90;;;;;;5110599;28;20602;-89
2022/12/23 05:08:25;;;;;;;21.70;14.70;;;3.20;99.90;;;;;;5101011;28;20225;-88
2022/12/23 05:10:51;;;;;;;21.23;14.10;;;3.20;99.90;;;;;;5107556;28;20173;-89
2022/12/23 05:13:17;;;;;;;18.73;13.47;;;3.20;99.90;;;;;;5101645;28;20165;-89
2022/12/23 05:15:44;;;;;;;21.33;14.37;;;3.30;99.90;;;;;;5101008;28;20209;-87
2022/12/23 05:18:10;;;;;;;21.03;14.30;;;3.30;99.90;;;;;;5097748;28;20189;-87
2022/12/23 05:20:38;;;;;;;21.67;14.23;;;3.20;99.90;;;;;;5099032;28;20709;-89
2022/12/23 05:23:04;;;;;;;22.03;14.47;;;3.20;99.90;;;;;;5098478;28;20186;-77
2022/12/23 05:25:32;;;;;;;21.67;13.83;;;3.20;99.90;;;;;;5101851;28;20238;-79
2022/12/23 05:27:58;;;;;;;24.40;15.47;;;3.20;99.90;;;;;;5100592;28;20210;-87
2022/12/23 05:30:24;;;;;;;20.40;13.90;;;3.20;99.90;;;;;;5079977;28;20175;-84
2022/12/23 05:32:54;;;;;;;22.40;13.47;;;3.20;99.90;;;;;;5089643;28;20263;-88
2022/12/23 05:35:21;;;;;;;20.33;13.37;;;3.20;99.90;;;;;;5098284;28;20209;-79
2022/12/23 05:37:47;;;;;;;23.57;14.43;;;3.20;99.90;;;;;;5108791;28;20314;-80
2022/12/23 05:40:13;;;;;;;20.37;13.50;;;3.10;99.90;;;;;;5099785;28;20183;-84
2022/12/23 05:42:39;;;;;;;18.87;13.60;;;3.20;99.90;;;;;;5097428;28;20252;-86
2022/12/23 05:45:06;;;;;;;24.33;14.40;;;3.20;99.90;;;;;;5097284;28;20621;-85
2022/12/23 05:47:31;;;;;;;21.90;13.87;;;3.20;99.90;;;;;;5090918;28;20189;-86
2022/12/23 05:49:57;;;;;;;21.90;14.93;;;3.20;99.90;;;;;;5076614;28;20179;-91
2022/12/23 05:52:23;;;;;;;21.10;13.63;;;3.20;99.90;;;;;;5085118;28;20177;-87
2022/12/23 05:54:49;;;;;;;18.27;13.03;;;3.10;99.90;;;;;;5096197;28;20199;-78
2022/12/23 05:57:14;;;;;;;19.47;13.77;;;3.20;99.90;;;;;;5086993;28;20205;-86
2022/12/23 05:59:40;;;;;;;19.50;13.03;;;3.10;99.90;;;;;;5081482;28;20535;-89
2022/12/23 06:02:06;;;;;;;20.97;12.50;;;3.10;99.90;;;;;;5085578;28;20232;-89
2022/12/23 06:04:32;;;;;;;18.67;13.17;;;3.00;99.90;;;;;;5114734;28;20675;-84
2022/12/23 06:06:58;;;;;;;18.57;12.70;;;2.90;99.90;;;;;;5100593;28;20226;-83
2022/12/23 06:09:23;;;;;;;16.73;11.73;;;3.00;99.90;;;;;;5100416;28;20174;-85
2022/12/23 06:11:49;;;;;;;15.53;12.17;;;3.00;99.90;;;;;;5099474;28;20259;-87
2022/12/23 06:14:15;;;;;;;15.77;11.90;;;3.10;99.90;;;;;;5079041;28;20176;-86
2022/12/23 06:16:41;;;;;;;17.17;12.07;;;3.10;99.90;;;;;;5079873;28;20203;-90
2022/12/23 06:19:07;;;;;;;16.63;12.83;;;3.00;99.90;;;;;;5096527;28;20642;-90
2022/12/23 06:21:32;;;;;;;18.07;12.30;;;3.00;99.90;;;;;;5098763;28;20198;-86
2022/12/23 06:23:58;;;;;;;15.80;12.10;;;2.90;99.90;;;;;;5080640;28;20185;-81
2022/12/23 06:26:25;;;;;;;21.20;13.87;;;2.90;99.90;;;;;;5075585;28;20187;-88
2022/12/23 06:28:50;;;;;;;18.20;13.13;;;2.90;99.90;;;;;;5076301;28;20180;-87
2022/12/23 06:31:16;;;;;;;18.20;12.80;;;2.90;99.90;;;;;;5077227;28;20183;-80
2022/12/23 06:33:42;;;;;;;19.33;12.47;;;2.90;99.90;;;;;;5084705;28;20182;-78
2022/12/23 06:36:08;;;;;;;22.17;13.67;;;2.90;99.90;;;;;;5080126;28;20262;-84
2022/12/23 06:38:35;;;;;;;17.87;12.83;;;2.90;99.90;;;;;;5075660;28;20720;-83
2022/12/23 06:41:01;;;;;;;19.40;12.23;;;2.90;99.90;;;;;;5080803;28;20204;-81
2022/12/23 06:43:27;;;;;;;18.17;13.23;;;3.00;99.90;;;;;;5085883;28;20597;-86
2022/12/23 06:45:52;;;;;;;16.93;13.07;;;3.00;99.90;;;;;;5077810;28;20175;-85
2022/12/23 06:48:19;;;;;;;23.13;14.17;;;3.00;99.90;;;;;;5081987;28;20202;-82
2022/12/23 06:50:45;;;;;;;24.13;13.47;;;3.00;99.90;;;;;;5086273;28;20186;-87
2022/12/23 06:53:11;;;;;;;23.20;14.87;;;3.10;99.90;;;;;;5078931;28;20643;-87
2022/12/23 06:55:37;;;;;;;23.73;14.20;;;3.00;99.90;;;;;;5077035;28;20286;-88
2022/12/23 06:58:03;;;;;;;19.40;13.07;;;3.00;99.90;;;;;;5076270;28;20170;-84
2022/12/23 07:00:29;;;;;;;22.13;14.50;;;3.00;99.90;;;;;;5076583;28;20183;-90
2022/12/23 07:02:55;;;;;;;18.70;13.70;;;3.00;99.90;;;;;;5084150;28;20177;-90
2022/12/23 07:05:21;;;;;;;20.40;14.20;;;3.00;99.90;;;;;;5098387;28;20214;-86
2022/12/23 07:07:47;;;;;;;20.47;13.20;;;3.00;99.90;;;;;;5101742;28;20281;-84
2022/12/23 07:10:13;;;;;;;19.10;13.70;;;3.00;99.90;;;;;;5094891;28;20177;-89
2022/12/23 07:12:38;;;;;;;19.77;14.50;;;2.90;99.90;;;;;;5095362;28;20166;-90
2022/12/23 07:15:06;;;;;;;19.80;13.80;;;3.00;99.90;;;;;;5096742;28;20208;-87
2022/12/23 07:17:31;;;;;;;22.07;14.67;;;3.00;99.90;;;;;;5093599;28;20264;-89
2022/12/23 07:20:00;;;;;;;23.17;14.40;;;3.00;99.90;;;;;;5079460;28;20210;-83
2022/12/23 07:22:26;;;;;;;20.70;14.23;;;2.90;99.90;;;;;;5088519;28;20181;-81
2022/12/23 07:24:52;;;;;;;20.13;13.97;;;2.90;99.90;;;;;;5077045;28;20177;-87
2022/12/23 07:27:17;;;;;;;19.37;13.67;;;3.00;99.90;;;;;;5074981;28;20287;-80
2022/12/23 07:29:43;;;;;;;20.00;14.00;;;3.00;99.90;;;;;;5093507;28;20158;-79
2022/12/23 07:32:09;;;;;;;23.97;14.80;;;2.90;99.90;;;;;;5087239;28;20185;-82
2022/12/23 07:34:35;;;;;;;22.77;14.10;;;2.90;99.90;;;;;;5074717;28;20182;-80
2022/12/23 07:37:01;;;;;;;20.40;13.67;;;2.90;99.90;;;;;;5076033;28;20197;-89
2022/12/23 07:39:27;;;;;;;19.37;13.70;;;2.90;99.90;;;;;;5093620;28;20316;-88
2022/12/23 07:41:53;;;;;;;20.00;14.43;;;2.90;99.90;;;;;;5097262;28;20173;-88
2022/12/23 07:44:18;;;;;;;20.57;13.70;;;2.90;99.90;;;;;;5095448;28;20184;-89
2022/12/23 07:46:44;;;;;;;18.10;12.97;;;2.90;99.90;;;;;;5097369;28;20198;-88
2022/12/23 07:49:10;;;;;;;19.77;13.10;;;3.00;99.90;;;;;;5083212;28;20564;-88
2022/12/23 07:51:36;;;;;;;24.17;14.93;;;3.00;99.90;;;;;;5084507;28;20180;-85
2022/12/23 07:54:01;;;;;;;21.40;15.20;;;3.00;99.90;;;;;;5102102;28;20178;-88
2022/12/23 07:56:27;;;;;;;23.60;15.67;;;3.00;99.90;;;;;;5109432;28;20194;-86
2022/12/23 07:58:53;;;;;;;21.93;14.40;;;3.00;99.90;;;;;;5104120;28;20175;-89
2022/12/23 08:01:20;;;;;;;20.43;14.20;;;3.00;99.90;;;;;;5102726;28;20704;-89
2022/12/23 08:03:47;;;;;;;20.17;13.87;;;3.00;99.90;;;;;;5081858;28;20167;-89
2022/12/23 08:06:15;;;;;;;18.17;13.63;;;3.10;99.90;;;;;;5088355;28;20238;-81
2022/12/23 08:08:44;;;;;;;19.97;15.10;;;3.10;99.90;;;;;;5078992;28;20214;-77
2022/12/23 08:11:14;;;;;;;22.97;14.23;;;3.10;99.90;;;;;;5078380;28;20174;-87
2022/12/23 08:13:42;;;;;;;21.50;14.37;;;3.10;99.90;;;;;;5078084;28;20172;-83
2022/12/23 08:16:09;;;;;;;23.27;14.90;;;3.20;99.90;;;;;;5078745;28;20233;-84
2022/12/23 08:18:36;;;;;;;22.30;15.17;;;3.30;99.90;;;;;;5080279;28;20193;-86
2022/12/23 08:21:21;;;;;;;20.97;14.33;;;3.30;99.90;;;;;;5092615;28;20190;-84
2022/12/23 08:23:47;;;;;;;23.77;15.80;;;3.30;99.90;;;;;;5103117;28;20188;-85
2022/12/23 08:26:17;;;;;;;21.93;15.60;;;3.30;99.90;;;;;;5096021;28;20225;-84
2022/12/23 08:28:44;;;;;;;21.27;16.63;;;3.40;99.90;;;;;;5078015;28;20657;-85
2022/12/23 08:31:13;;;;;;;24.57;15.43;;;3.40;99.90;;;;;;5078951;28;20178;-84
2022/12/23 08:33:40;;;;;;;21.33;14.93;;;3.50;99.90;;;;;;5083416;28;20193;-87
2022/12/23 08:36:08;;;;;;;21.37;15.17;;;3.50;99.90;;;;;;5091020;28;20210;-86
2022/12/23 08:38:35;;;;;;;23.17;16.13;;;3.50;99.90;;;;;;5081358;28;20182;-91
2022/12/23 08:41:01;;;;;;;21.43;15.47;;;3.60;99.90;;;;;;5080369;28;20189;-86
2022/12/23 08:43:27;;;;;;;21.50;15.87;;;3.60;99.90;;;;;;5096562;28;20262;-86
2022/12/23 08:45:53;;;;;;;21.40;16.00;;;3.60;99.90;;;;;;5095887;28;20183;-86
2022/12/23 08:48:19;;;;;;;21.57;15.97;;;3.70;99.90;;;;;;5096739;28;20209;-86
2022/12/23 08:50:46;;;;;;;23.80;15.77;;;3.70;99.90;;;;;;5098501;28;20200;-84
2022/12/23 08:53:12;;;;;;;21.30;15.53;;;3.70;99.90;;;;;;5079010;28;20186;-83
2022/12/23 08:55:44;;;;;;;20.37;14.93;;;3.80;99.90;;;;;;5076041;28;20627;-85
2022/12/23 08:58:11;;;;;;;21.03;14.60;;;3.80;99.90;;;;;;5081400;28;20191;-88
2022/12/23 09:00:37;;;;;;;23.77;15.27;;;3.90;99.90;;;;;;5083024;28;20218;-88
2022/12/23 09:03:03;;;;;;;20.50;14.90;;;4.10;99.90;;;;;;5093516;28;20179;-84
2022/12/23 09:05:30;;;;;;;22.73;14.77;;;4.10;99.90;;;;;;5099843;28;20218;-88
2022/12/23 09:07:56;;;;;;;20.23;14.40;;;4.20;99.90;;;;;;5115262;28;20233;-87
2022/12/23 09:10:23;;;;;;;21.50;15.33;;;4.30;99.90;;;;;;5103895;28;20180;-89
2022/12/23 09:12:49;;;;;;;20.53;14.37;;;4.40;99.90;;;;;;5098936;28;20616;-88
2022/12/23 09:15:15;;;;;;;17.63;13.60;;;4.40;99.90;;;;;;5104305;28;20194;-85
2022/12/23 09:17:41;;;;;;;19.13;13.13;;;4.50;99.90;;;;;;5108771;28;20719;-88
2022/12/23 09:20:07;;;;;;;19.40;13.93;;;4.60;99.90;;;;;;5102630;28;20613;-87
2022/12/23 09:22:34;;;;;;;16.67;12.47;;;4.60;99.90;;;;;;5088676;28;20182;-90
2022/12/23 09:25:00;;;;;;;23.77;13.50;;;4.70;99.90;;;;;;5079223;28;20188;-89
2022/12/23 09:27:26;;;;;;;20.10;13.63;;;4.80;99.90;;;;;;5088111;28;20205;-90
2022/12/23 09:29:51;;;;;;;18.93;13.93;;;4.80;99.90;;;;;;5110583;28;20178;-88
2022/12/23 09:32:18;;;;;;;18.03;13.57;;;4.90;99.90;;;;;;5105686;28;20167;-91
2022/12/23 09:34:44;;;;;;;19.90;13.67;;;4.90;99.90;;;;;;5099649;28;20183;-89
2022/12/23 09:37:15;;;;;;;19.67;13.40;;;5.00;99.90;;;;;;5100213;28;20192;-92
2022/12/23 09:39:41;;;;;;;17.33;14.17;;;5.00;99.90;;;;;;5101801;28;20180;-85
2022/12/23 09:42:16;;;;;;;20.80;14.43;;;5.10;99.90;;;;;;5104952;28;20180;-85
2022/12/23 09:44:47;;;;;;;21.83;14.90;;;5.10;99.90;;;;;;5101488;28;20163;-86
2022/12/23 09:47:22;;;;;;;21.43;15.57;;;5.10;99.90;;;;;;5091087;28;20265;-85
2022/12/23 09:49:55;;;;;;;22.00;14.60;;;5.40;99.90;;;;;;5079069;28;20164;-86
2022/12/23 09:52:40;;;;;;;20.53;14.23;;;5.40;99.90;;;;;;5085809;28;20232;-93
2022/12/23 09:55:10;;;;;;;20.60;14.57;;;5.30;99.90;;;;;;5098446;28;20188;-88
2022/12/23 09:57:59;;;;;;;18.37;13.73;;;5.30;99.90;;;;;;5098702;28;20630;-88
2022/12/23 10:00:31;;;;;;;20.47;15.27;;;5.30;99.90;;;;;;5097315;28;20191;-85
2022/12/23 10:03:34;;;;;;;20.37;14.27;;;5.30;99.90;;;;;;5101485;28;20160;-87
2022/12/23 10:06:16;;;;;;;20.37;14.70;;;5.30;99.90;;;;;;5102301;28;20195;-87
2022/12/23 10:08:45;;;;;;;18.40;14.40;;;5.50;99.90;;;;;;5097755;28;20217;-85
2022/12/23 10:11:22;;;;;;;20.43;14.67;;;5.50;99.90;;;;;;5098423;28;20631;-86
2022/12/23 10:14:24;;;;;;;20.63;14.67;;;5.40;99.90;;;;;;5079256;28;20182;-87
2022/12/23 10:17:01;;;;;;;17.27;12.63;;;5.40;99.90;;;;;;5079948;28;20230;-87
2022/12/23 10:19:47;;;;;;;17.77;13.13;;;5.50;99.90;;;;;;5103075;28;20210;-88
2022/12/23 10:22:20;;;;;;;20.13;13.87;;;5.50;99.90;;;;;;5110260;28;20174;-88
2022/12/23 10:24:47;;;;;;;17.07;12.77;;;5.50;99.90;;;;;;5097867;28;20165;-89
2022/12/23 10:27:28;;;;;;;19.63;13.73;;;5.50;99.90;;;;;;5094145;28;20194;-92
2022/12/23 10:30:00;;;;;;;19.57;14.83;;;5.50;99.90;;;;;;5075759;28;20170;-90
2022/12/23 10:32:46;;;;;;;16.77;12.97;;;5.50;99.90;;;;;;5090701;28;20179;-89
2022/12/23 10:35:44;;;;;;;18.67;13.17;;;5.60;99.90;;;;;;5095357;28;20207;-86
2022/12/23 10:38:28;;;;;;;18.20;12.20;;;5.60;99.90;;;;;;5099362;28;20166;-89
2022/12/23 10:41:17;;;;;;;17.20;12.83;;;5.70;99.90;;;;;;5116400;28;20184;-90
2022/12/23 10:43:52;;;;;;;14.20;11.17;;;5.70;99.90;;;;;;5072315;28;20199;-89
2022/12/23 10:46:34;;;;;;;14.80;10.73;;;5.80;99.90;;;;;;5093855;28;20243;-91
2022/12/23 10:49:19;;;;;;;13.17;10.90;;;5.90;99.90;;;;;;5110072;28;20158;-90
2022/12/23 10:52:02;;;;;;;16.20;11.77;;;5.90;99.90;;;;;;5115077;28;20173;-89
2022/12/23 10:54:35;;;;;;;14.70;11.40;;;5.90;99.90;;;;;;5059510;28;20180;-91
2022/12/23 10:57:04;;;;;;;14.93;11.63;;;5.90;99.90;;;;;;5063119;28;20204;-90
2022/12/23 10:59:33;;;;;;;16.47;12.00;;;6.00;99.90;;;;;;5094349;28;20189;-88
2022/12/23 11:02:19;;;;;;;17.10;11.93;;;6.00;99.90;;;;;;5082811;28;20190;-90
2022/12/23 11:04:49;;;;;;;13.63;10.70;;;6.10;99.90;;;;;;5110312;28;20183;-89
2022/12/23 11:07:25;;;;;;;14.00;10.97;;;6.20;99.90;;;;;;5100528;28;20229;-90
2022/12/23 11:10:05;;;;;;;12.90;9.93;;;6.20;99.90;;;;;;5100773;28;20173;-89
2022/12/23 11:12:49;;;;;;;11.93;9.93;;;6.30;99.90;;;;;;5100613;28;20178;-90
2022/12/23 11:15:31;;;;;;;14.10;9.53;;;6.30;99.90;;;;;;5102956;28;20204;-90
2022/12/23 11:18:11;;;;;;;11.43;9.77;;;6.30;99.90;;;;;;5091197;28;20199;-89
2022/12/23 11:20:38;;;;;;;11.80;9.10;;;6.40;99.90;;;;;;5079365;28;20198;-93
2022/12/23 11:23:21;;;;;;;11.33;9.30;;;6.40;99.90;;;;;;5096529;28;20181;-91
2022/12/23 11:25:47;;;;;;;11.27;9.33;;;6.50;99.90;;;;;;5097850;28;20655;-90
2022/12/23 11:28:20;;;;;;;12.57;9.83;;;6.50;99.90;;;;;;5096091;28;20186;-90
2022/12/23 11:31:04;;;;;;;12.90;9.87;;;6.60;99.90;;;;;;5096316;28;20169;-91
2022/12/23 11:33:34;;;;;;;11.60;8.97;;;6.60;99.90;;;;;;5096333;28;20169;-91
2022/12/23 11:36:13;;;;;;;11.50;8.57;;;6.70;99.90;;;;;;5098416;28;21112;-90
2022/12/23 11:39:31;;;;;;;12.93;10.23;;;6.70;99.90;;;;;;5097963;28;20195;-88
2022/12/23 11:42:23;;;;;;;11.67;9.27;;;6.80;99.90;;;;;;5031381;28;20212;-87
2022/12/23 11:44:51;;;;;;;11.63;8.17;;;6.90;99.90;;;;;;5038663;28;20598;-88
2022/12/23 11:47:32;;;;;;;11.73;8.70;;;6.90;99.90;;;;;;5080362;28;20190;-88
2022/12/23 11:50:22;;;;;;;11.47;8.97;;;7.00;99.90;;;;;;5107104;28;20174;-90
2022/12/23 11:52:59;;;;;;;12.30;9.47;;;7.10;99.90;;;;;;5107567;28;20188;-88
2022/12/23 11:55:28;;;;;;;11.60;9.07;;;7.30;99.90;;;;;;5083081;28;20211;-90
2022/12/23 11:57:56;;;;;;;10.50;9.00;;;7.30;99.90;;;;;;5095502;28;20180;-91
2022/12/23 12:00:27;;;;;;;9.93;8.07;;;7.40;99.90;;;;;;5095193;28;20216;-89
2022/12/23 12:03:02;;;;;;;9.40;8.03;;;7.40;99.90;;;;;;5081578;28;20170;-88
2022/12/23 12:05:37;;;;;;;10.00;8.30;;;7.50;99.90;;;;;;5080628;28;20175;-90
2022/12/23 12:08:09;;;;;;;11.40;8.50;;;7.50;99.90;;;;;;5109779;28;20232;-89
2022/12/23 12:10:40;;;;;;;11.40;8.80;;;7.60;99.90;;;;;;5103546;28;20169;-91
2022/12/23 12:13:29;;;;;;;10.40;8.33;;;7.80;99.90;;;;;;5097961;28;20530;-91
2022/12/23 12:16:25;;;;;;;11.03;8.37;;;8.00;99.90;;;;;;5097373;28;20213;-91
2022/12/23 12:18:54;;;;;;;10.17;8.50;;;8.20;99.90;;;;;;5101312;28;20190;-90
2022/12/23 12:21:28;;;;;;;10.10;8.00;;;8.50;99.90;;;;;;5109728;28;20190;-89
2022/12/23 12:24:04;;;;;;;11.97;8.30;;;8.60;99.90;;;;;;5093013;28;20172;-90
2022/12/23 12:26:34;;;;;;;10.30;7.97;;;8.80;99.90;;;;;;5078345;28;20175;-90
2022/12/23 12:29:33;;;;;;;9.20;8.23;;;8.90;99.90;;;;;;5075549;28;20178;-86
2022/12/23 12:32:01;;;;;;;8.47;7.63;;;8.90;99.90;;;;;;5081840;28;20265;-89
2022/12/23 12:34:41;;;;;;;9.67;7.40;;;8.90;99.90;;;;;;5097805;28;20172;-88
2022/12/23 12:37:28;;;;;;;9.53;7.50;;;9.00;99.90;;;;;;5090995;28;20270;-87
2022/12/23 12:40:16;;;;;;;8.33;7.43;;;9.00;99.90;;;;;;5093234;28;20191;-87
2022/12/23 12:42:57;;;;;;;7.97;7.10;;;9.00;99.90;;;;;;5103027;28;20171;-87
2022/12/23 12:45:31;;;;;;;7.83;7.03;;;9.00;99.90;;;;;;5103505;28;20183;-89
2022/12/23 12:48:02;;;;;;;7.67;6.87;;;8.90;99.90;;;;;;5089119;28;20588;-88
2022/12/23 12:50:32;;;;;;;7.87;7.03;;;8.90;99.90;;;;;;5085336;28;20167;-89
2022/12/23 12:53:08;;;;;;;8.27;6.80;;;8.80;99.90;;;;;;5105011;28;20165;-88
2022/12/23 12:55:41;;;;;;;8.83;7.37;;;8.80;99.90;;;;;;5108156;28;20207;-89
2022/12/23 12:58:27;;;;;;;7.87;6.57;;;8.80;99.90;;;;;;5114453;28;20171;-91
2022/12/23 13:01:43;;;;;;;9.00;7.47;;;8.90;99.90;;;;;;5099503;28;20187;-89
2022/12/23 13:04:15;;;;;;;8.23;7.00;;;8.90;99.90;;;;;;5060643;28;20186;-86
2022/12/23 13:06:49;;;;;;;7.80;7.00;;;8.80;99.90;;;;;;5074844;28;20178;-85
2022/12/23 13:09:56;;;;;;;7.87;6.50;;;8.80;99.90;;;;;;5111408;28;20168;-86
2022/12/23 13:13:08;;;;;;;8.43;6.80;;;8.80;99.90;;;;;;5079707;28;20636;-88
2022/12/23 13:15:41;;;;;;;7.57;6.70;;;8.70;99.90;;;;;;5019818;28;20216;-87
2022/12/23 13:18:30;;;;;;;7.07;6.40;;;8.70;99.90;;;;;;5086669;28;20180;-85
2022/12/23 13:21:16;;;;;;;8.47;6.83;;;8.70;99.90;;;;;;5097416;28;20668;-85
2022/12/23 13:24:00;;;;;;;14.60;7.53;;;8.80;99.90;;;;;;5084647;28;20629;-84
2022/12/23 13:26:38;;;;;;;8.40;7.00;;;8.80;99.90;;;;;;5101126;28;20175;-84
2022/12/23 13:29:29;;;;;;;8.57;6.80;;;8.90;99.90;;;;;;5078833;28;20243;-84
2022/12/23 13:32:19;;;;;;;8.57;6.73;;;8.90;99.90;;;;;;5077938;28;20189;-85
2022/12/23 13:35:02;;;;;;;8.53;6.30;;;8.90;99.90;;;;;;5096571;28;20217;-85
2022/12/23 13:37:48;;;;;;;10.73;7.07;;;8.90;99.90;;;;;;5095877;28;20238;-85